sensor_id;sensor_type;location;lat;lon;timestamp;P1;durP1;ratioP1;P2;durP2;ratioP2
33148;SDS011;19506;51.040;3.856;2022-08-19T14:58:07;5.32;;;2.28;;
33148;SDS011;19506;51.040;3.856;2022-08-19T15:00:33;4.75;;;1.55;;
33148;SDS011;19506;51.040;3.856;2022-08-19T15:02:59;9.32;;;2.25;;
33148;SDS011;19506;51.040;3.856;2022-08-19T15:05:25;11.38;;;2.08;;
33148;SDS011;19506;51.040;3.856;2022-08-19T15:07:51;9.25;;;2.20;;
33148;SDS011;19506;51.040;3.856;2022-08-19T15:10:19;20.38;;;2.83;;
33148;SDS011;19506;51.040;3.856;2022-08-19T15:12:46;18.98;;;2.95;;
33148;SDS011;19506;51.040;3.856;2022-08-19T15:15:13;14.02;;;2.53;;
33148;SDS011;19506;51.040;3.856;2022-08-19T15:17:42;14.00;;;3.08;;
33148;SDS011;19506;51.040;3.856;2022-08-19T15:20:08;11.88;;;2.85;;
33148;SDS011;19506;51.040;3.856;2022-08-19T15:22:35;13.88;;;2.78;;
33148;SDS011;19506;51.040;3.856;2022-08-19T15:25:01;8.95;;;2.80;;
33148;SDS011;19506;51.040;3.856;2022-08-19T15:27:28;16.45;;;2.92;;
33148;SDS011;19506;51.040;3.856;2022-08-19T15:29:54;14.18;;;3.17;;
33148;SDS011;19506;51.040;3.856;2022-08-19T15:32:21;8.55;;;2.95;;
33148;SDS011;19506;51.040;3.856;2022-08-19T15:34:48;10.48;;;3.65;;
33148;SDS011;19506;51.040;3.856;2022-08-19T15:37:14;13.98;;;3.22;;
33148;SDS011;19506;51.040;3.856;2022-08-19T15:39:39;20.60;;;3.78;;
33148;SDS011;19506;51.040;3.856;2022-08-19T15:42:05;22.45;;;4.50;;
33148;SDS011;19506;51.040;3.856;2022-08-19T15:44:32;19.50;;;3.25;;
33148;SDS011;19506;51.040;3.856;2022-08-19T15:46:58;15.82;;;4.15;;
33148;SDS011;19506;51.040;3.856;2022-08-19T15:49:24;10.20;;;3.90;;
33148;SDS011;19506;51.040;3.856;2022-08-19T15:51:49;16.58;;;4.57;;
33148;SDS011;19506;51.040;3.856;2022-08-19T15:54:19;14.98;;;5.05;;
33148;SDS011;19506;51.040;3.856;2022-08-19T15:56:46;17.15;;;5.78;;
33148;SDS011;19506;51.040;3.856;2022-08-19T15:59:31;22.23;;;5.53;;
33148;SDS011;19506;51.040;3.856;2022-08-19T16:02:17;12.77;;;4.75;;
33148;SDS011;19506;51.040;3.856;2022-08-19T16:05:04;28.55;;;5.40;;
33148;SDS011;19506;51.040;3.856;2022-08-19T16:07:51;28.85;;;7.35;;
33148;SDS011;19506;51.040;3.856;2022-08-19T16:10:18;18.55;;;5.85;;
33148;SDS011;19506;51.040;3.856;2022-08-19T16:12:44;16.67;;;5.88;;
33148;SDS011;19506;51.040;3.856;2022-08-19T16:15:10;14.13;;;6.15;;
33148;SDS011;19506;51.040;3.856;2022-08-19T16:17:39;21.80;;;6.35;;
33148;SDS011;19506;51.040;3.856;2022-08-19T16:20:06;20.80;;;7.10;;
33148;SDS011;19506;51.040;3.856;2022-08-19T16:22:33;28.48;;;6.28;;
33148;SDS011;19506;51.040;3.856;2022-08-19T16:24:59;16.23;;;5.60;;
33148;SDS011;19506;51.040;3.856;2022-08-19T16:27:26;20.27;;;7.50;;
33148;SDS011;19506;51.040;3.856;2022-08-19T16:29:52;18.30;;;7.95;;
33148;SDS011;19506;51.040;3.856;2022-08-19T16:32:18;30.38;;;7.95;;
33148;SDS011;19506;51.040;3.856;2022-08-19T16:34:45;19.88;;;7.45;;
33148;SDS011;19506;51.040;3.856;2022-08-19T16:37:11;21.75;;;6.78;;
33148;SDS011;19506;51.040;3.856;2022-08-19T16:39:38;35.58;;;7.25;;
33148;SDS011;19506;51.040;3.856;2022-08-19T16:42:04;15.70;;;6.35;;
33148;SDS011;19506;51.040;3.856;2022-08-19T16:44:31;19.70;;;5.57;;
33148;SDS011;19506;51.040;3.856;2022-08-19T16:46:57;20.52;;;6.28;;
33148;SDS011;19506;51.040;3.856;2022-08-19T16:49:23;18.95;;;5.82;;
33148;SDS011;19506;51.040;3.856;2022-08-19T16:51:50;19.48;;;6.15;;
33148;SDS011;19506;51.040;3.856;2022-08-19T16:54:16;16.95;;;5.43;;
33148;SDS011;19506;51.040;3.856;2022-08-19T16:56:42;15.18;;;5.13;;
33148;SDS011;19506;51.040;3.856;2022-08-19T16:59:09;22.02;;;5.80;;
33148;SDS011;19506;51.040;3.856;2022-08-19T17:01:35;18.50;;;6.32;;
33148;SDS011;19506;51.040;3.856;2022-08-19T17:04:01;14.70;;;4.82;;
33148;SDS011;19506;51.040;3.856;2022-08-19T17:06:28;22.83;;;5.22;;
33148;SDS011;19506;51.040;3.856;2022-08-19T17:08:58;18.42;;;5.40;;
33148;SDS011;19506;51.040;3.856;2022-08-19T17:11:26;20.02;;;4.85;;
33148;SDS011;19506;51.040;3.856;2022-08-19T17:13:53;14.25;;;4.03;;
33148;SDS011;19506;51.040;3.856;2022-08-19T17:16:21;8.23;;;3.95;;
33148;SDS011;19506;51.040;3.856;2022-08-19T17:18:50;18.65;;;4.18;;
33148;SDS011;19506;51.040;3.856;2022-08-19T17:21:18;13.18;;;4.13;;
33148;SDS011;19506;51.040;3.856;2022-08-19T17:23:44;16.38;;;3.75;;
33148;SDS011;19506;51.040;3.856;2022-08-19T17:26:11;10.85;;;4.32;;
33148;SDS011;19506;51.040;3.856;2022-08-19T17:28:38;17.40;;;3.95;;
33148;SDS011;19506;51.040;3.856;2022-08-19T17:31:03;14.35;;;4.43;;
33148;SDS011;19506;51.040;3.856;2022-08-19T17:33:31;17.67;;;3.78;;
33148;SDS011;19506;51.040;3.856;2022-08-19T17:35:57;9.02;;;3.08;;
33148;SDS011;19506;51.040;3.856;2022-08-19T17:38:23;9.35;;;3.40;;
33148;SDS011;19506;51.040;3.856;2022-08-19T17:40:50;13.05;;;3.88;;
33148;SDS011;19506;51.040;3.856;2022-08-19T17:43:16;13.70;;;3.20;;
33148;SDS011;19506;51.040;3.856;2022-08-19T17:45:44;11.07;;;4.35;;
33148;SDS011;19506;51.040;3.856;2022-08-19T17:48:10;14.90;;;4.13;;
33148;SDS011;19506;51.040;3.856;2022-08-19T17:50:37;9.18;;;3.70;;
33148;SDS011;19506;51.040;3.856;2022-08-19T17:53:04;10.18;;;3.20;;
33148;SDS011;19506;51.040;3.856;2022-08-19T17:55:30;15.80;;;3.63;;
33148;SDS011;19506;51.040;3.856;2022-08-19T17:57:58;12.60;;;3.70;;
33148;SDS011;19506;51.040;3.856;2022-08-19T18:00:24;11.93;;;3.55;;
33148;SDS011;19506;51.040;3.856;2022-08-19T18:02:51;10.15;;;2.97;;
33148;SDS011;19506;51.040;3.856;2022-08-19T18:05:20;7.03;;;2.90;;
33148;SDS011;19506;51.040;3.856;2022-08-19T18:07:51;9.45;;;3.10;;
33148;SDS011;19506;51.040;3.856;2022-08-19T18:10:21;7.32;;;3.00;;
33148;SDS011;19506;51.040;3.856;2022-08-19T18:12:48;9.05;;;2.60;;
33148;SDS011;19506;51.040;3.856;2022-08-19T18:15:15;6.50;;;2.75;;
33148;SDS011;19506;51.040;3.856;2022-08-19T18:17:42;14.90;;;3.00;;
33148;SDS011;19506;51.040;3.856;2022-08-19T18:20:09;7.68;;;3.15;;
33148;SDS011;19506;51.040;3.856;2022-08-19T18:22:38;9.05;;;3.03;;
33148;SDS011;19506;51.040;3.856;2022-08-19T18:25:27;10.43;;;4.53;;
33148;SDS011;19506;51.040;3.856;2022-08-19T18:27:53;13.93;;;3.65;;
33148;SDS011;19506;51.040;3.856;2022-08-19T18:30:20;6.00;;;2.90;;
33148;SDS011;19506;51.040;3.856;2022-08-19T18:32:48;16.17;;;3.55;;
33148;SDS011;19506;51.040;3.856;2022-08-19T18:35:17;6.97;;;3.13;;
33148;SDS011;19506;51.040;3.856;2022-08-19T18:37:50;10.43;;;3.35;;
33148;SDS011;19506;51.040;3.856;2022-08-19T18:40:17;10.60;;;2.90;;
33148;SDS011;19506;51.040;3.856;2022-08-19T18:43:04;7.57;;;2.63;;
33148;SDS011;19506;51.040;3.856;2022-08-19T18:45:59;8.93;;;2.92;;
33148;SDS011;19506;51.040;3.856;2022-08-19T18:48:43;4.95;;;2.30;;
33148;SDS011;19506;51.040;3.856;2022-08-19T18:51:27;7.18;;;2.45;;
33148;SDS011;19506;51.040;3.856;2022-08-19T18:53:54;15.65;;;2.72;;
33148;SDS011;19506;51.040;3.856;2022-08-19T18:56:22;9.82;;;2.90;;
33148;SDS011;19506;51.040;3.856;2022-08-19T18:58:52;12.73;;;2.40;;
33148;SDS011;19506;51.040;3.856;2022-08-19T19:01:21;9.30;;;2.00;;
33148;SDS011;19506;51.040;3.856;2022-08-19T19:03:54;13.90;;;2.28;;
33148;SDS011;19506;51.040;3.856;2022-08-19T19:06:26;6.07;;;1.83;;
33148;SDS011;19506;51.040;3.856;2022-08-19T19:08:55;5.57;;;1.98;;
33148;SDS011;19506;51.040;3.856;2022-08-19T19:11:31;5.85;;;1.83;;
33148;SDS011;19506;51.040;3.856;2022-08-19T19:13:59;4.97;;;1.90;;
33148;SDS011;19506;51.040;3.856;2022-08-19T19:16:27;5.75;;;2.00;;
33148;SDS011;19506;51.040;3.856;2022-08-19T19:18:54;6.00;;;1.35;;
33148;SDS011;19506;51.040;3.856;2022-08-19T19:21:21;6.38;;;1.70;;
33148;SDS011;19506;51.040;3.856;2022-08-19T19:23:48;4.90;;;1.55;;
33148;SDS011;19506;51.040;3.856;2022-08-19T19:26:14;4.78;;;1.00;;
33148;SDS011;19506;51.040;3.856;2022-08-19T19:28:41;4.35;;;1.73;;
33148;SDS011;19506;51.040;3.856;2022-08-19T19:31:27;11.57;;;1.92;;
33148;SDS011;19506;51.040;3.856;2022-08-19T19:33:53;3.70;;;2.33;;
33148;SDS011;19506;51.040;3.856;2022-08-19T19:36:20;5.22;;;1.45;;
33148;SDS011;19506;51.040;3.856;2022-08-19T19:38:46;5.88;;;1.77;;
33148;SDS011;19506;51.040;3.856;2022-08-19T19:41:12;6.60;;;1.80;;
33148;SDS011;19506;51.040;3.856;2022-08-19T19:43:39;7.30;;;2.03;;
33148;SDS011;19506;51.040;3.856;2022-08-19T19:46:05;7.97;;;1.48;;
33148;SDS011;19506;51.040;3.856;2022-08-19T19:48:31;4.28;;;1.50;;
33148;SDS011;19506;51.040;3.856;2022-08-19T19:50:57;8.90;;;1.35;;
33148;SDS011;19506;51.040;3.856;2022-08-19T19:53:23;7.03;;;1.75;;
33148;SDS011;19506;51.040;3.856;2022-08-19T19:55:50;6.68;;;1.52;;
33148;SDS011;19506;51.040;3.856;2022-08-19T19:58:19;4.97;;;1.70;;
33148;SDS011;19506;51.040;3.856;2022-08-19T20:00:45;3.92;;;1.90;;
33148;SDS011;19506;51.040;3.856;2022-08-19T20:03:11;4.88;;;2.08;;
33148;SDS011;19506;51.040;3.856;2022-08-19T20:05:37;8.10;;;1.42;;
33148;SDS011;19506;51.040;3.856;2022-08-19T20:08:02;11.85;;;1.50;;
33148;SDS011;19506;51.040;3.856;2022-08-19T20:10:47;9.18;;;1.45;;
33148;SDS011;19506;51.040;3.856;2022-08-19T20:13:13;3.75;;;1.48;;
33148;SDS011;19506;51.040;3.856;2022-08-19T20:15:39;4.05;;;1.52;;
33148;SDS011;19506;51.040;3.856;2022-08-19T20:18:07;4.03;;;1.52;;
33148;SDS011;19506;51.040;3.856;2022-08-19T20:20:34;7.53;;;1.52;;
33148;SDS011;19506;51.040;3.856;2022-08-19T20:23:00;3.10;;;1.13;;
33148;SDS011;19506;51.040;3.856;2022-08-19T20:25:26;3.65;;;1.60;;
33148;SDS011;19506;51.040;3.856;2022-08-19T20:27:51;3.90;;;1.55;;
33148;SDS011;19506;51.040;3.856;2022-08-19T20:30:18;5.38;;;1.88;;
33148;SDS011;19506;51.040;3.856;2022-08-19T20:32:45;8.68;;;2.17;;
33148;SDS011;19506;51.040;3.856;2022-08-19T20:35:12;2.78;;;1.50;;
33148;SDS011;19506;51.040;3.856;2022-08-19T20:37:40;8.85;;;2.28;;
33148;SDS011;19506;51.040;3.856;2022-08-19T20:40:06;2.50;;;1.55;;
33148;SDS011;19506;51.040;3.856;2022-08-19T20:42:40;8.55;;;1.60;;
33148;SDS011;19506;51.040;3.856;2022-08-19T20:45:08;5.25;;;1.95;;
33148;SDS011;19506;51.040;3.856;2022-08-19T20:47:39;3.72;;;1.67;;
33148;SDS011;19506;51.040;3.856;2022-08-19T20:50:07;4.05;;;1.60;;
33148;SDS011;19506;51.040;3.856;2022-08-19T20:52:33;8.65;;;2.10;;
33148;SDS011;19506;51.040;3.856;2022-08-19T20:55:02;7.50;;;1.65;;
33148;SDS011;19506;51.040;3.856;2022-08-19T20:57:28;7.53;;;1.80;;
33148;SDS011;19506;51.040;3.856;2022-08-19T20:59:54;3.85;;;1.30;;
33148;SDS011;19506;51.040;3.856;2022-08-19T21:02:19;2.97;;;1.33;;
33148;SDS011;19506;51.040;3.856;2022-08-19T21:04:46;11.18;;;1.48;;
33148;SDS011;19506;51.040;3.856;2022-08-19T21:07:12;4.20;;;1.80;;
33148;SDS011;19506;51.040;3.856;2022-08-19T21:09:41;4.88;;;1.83;;
33148;SDS011;19506;51.040;3.856;2022-08-19T21:12:08;3.97;;;1.40;;
33148;SDS011;19506;51.040;3.856;2022-08-19T21:14:40;3.45;;;1.52;;
33148;SDS011;19506;51.040;3.856;2022-08-19T21:17:07;3.35;;;1.30;;
33148;SDS011;19506;51.040;3.856;2022-08-19T21:19:33;3.38;;;1.40;;
33148;SDS011;19506;51.040;3.856;2022-08-19T21:21:59;3.15;;;1.20;;
33148;SDS011;19506;51.040;3.856;2022-08-19T21:24:26;2.55;;;1.65;;
33148;SDS011;19506;51.040;3.856;2022-08-19T21:26:52;1.65;;;1.30;;
33148;SDS011;19506;51.040;3.856;2022-08-19T21:29:18;3.50;;;1.38;;
33148;SDS011;19506;51.040;3.856;2022-08-19T21:31:44;3.33;;;1.73;;
33148;SDS011;19506;51.040;3.856;2022-08-19T21:34:10;4.65;;;1.90;;
33148;SDS011;19506;51.040;3.856;2022-08-19T21:36:36;2.00;;;1.50;;
33148;SDS011;19506;51.040;3.856;2022-08-19T21:39:02;5.38;;;1.83;;
33148;SDS011;19506;51.040;3.856;2022-08-19T21:41:28;7.10;;;1.88;;
33148;SDS011;19506;51.040;3.856;2022-08-19T21:43:54;6.88;;;1.70;;
33148;SDS011;19506;51.040;3.856;2022-08-19T21:46:20;2.75;;;1.77;;
